createdAt,value
2022-10-10T00:01:28.654Z,100247.75
2022-10-10T00:03:56.062Z,100301.22
2022-10-10T00:06:23.662Z,100302.00
2022-10-10T00:08:51.260Z,100295.03
2022-10-10T00:11:20.626Z,100297.66
2022-10-10T00:13:48.371Z,100300.28
2022-10-10T00:16:15.876Z,100297.66
2022-10-10T00:18:43.311Z,100265.25
2022-10-10T00:21:11.016Z,100229.31
2022-10-10T00:23:38.462Z,100229.13
2022-10-10T00:26:08.998Z,100280.91
2022-10-10T00:28:40.387Z,100293.06
2022-10-10T00:31:09.340Z,100307.06
2022-10-10T00:33:37.558Z,100319.13
2022-10-10T00:36:06.703Z,100309.66
2022-10-10T00:38:34.484Z,100306.06
2022-10-10T00:41:02.168Z,100230.63
2022-10-10T00:43:31.328Z,100314.75
2022-10-10T00:45:59.071Z,100304.25
2022-10-10T00:48:36.224Z,100311.09
2022-10-10T00:51:11.770Z,100334.81
2022-10-10T00:53:46.479Z,100332.88
2022-10-10T00:56:15.517Z,100238.19
2022-10-10T00:58:46.493Z,100265.31
2022-10-10T01:01:13.596Z,100338.94
2022-10-10T01:03:40.860Z,100309.09
2022-10-10T01:06:08.443Z,100329.25
2022-10-10T01:08:36.354Z,100289.72
2022-10-10T01:11:21.527Z,100346.63
2022-10-10T01:14:16.068Z,100348.47
2022-10-10T01:17:18.263Z,100358.84
2022-10-10T01:20:22.582Z,100353.66
2022-10-10T01:23:23.804Z,100370.13
2022-10-10T01:26:09.149Z,100377.84
2022-10-10T01:29:02.868Z,100372.63
2022-10-10T01:31:33.540Z,100363.66
2022-10-10T01:34:17.346Z,100386.34
2022-10-10T01:37:07.337Z,100395.72
2022-10-10T01:40:03.693Z,100394.84
2022-10-10T01:42:53.596Z,100397.44
2022-10-10T01:45:21.239Z,100391.25
2022-10-10T01:47:50.023Z,100122.84
2022-10-10T01:50:22.225Z,100325.31
2022-10-10T01:53:10.428Z,100413.00
2022-10-10T01:55:52.878Z,100421.63
2022-10-10T01:58:22.810Z,100419.78
2022-10-10T02:01:04.156Z,100417.13
2022-10-10T02:03:37.964Z,100373.94
2022-10-10T02:06:12.768Z,100431.72
2022-10-10T02:08:49.435Z,100434.44
2022-10-10T02:11:16.522Z,100416.03
2022-10-10T02:13:56.064Z,100392.41
2022-10-10T02:16:28.100Z,100435.25
2022-10-10T02:18:57.996Z,100394.88
2022-10-10T02:21:25.299Z,100430.75
2022-10-10T02:23:55.882Z,100356.19
2022-10-10T02:26:25.249Z,100446.47
2022-10-10T02:29:10.575Z,100420.22
2022-10-10T02:32:00.200Z,100470.06
2022-10-10T02:34:33.820Z,100477.66
2022-10-10T02:37:07.505Z,100474.06
2022-10-10T02:39:39.879Z,100483.75
2022-10-10T02:42:10.002Z,100454.00
2022-10-10T02:44:38.994Z,100474.03
2022-10-10T02:47:07.041Z,100477.56
2022-10-10T02:49:35.376Z,100464.34
2022-10-10T02:52:03.714Z,100472.28
2022-10-10T02:54:30.997Z,100453.81
2022-10-10T02:56:58.144Z,100476.63
2022-10-10T02:59:25.175Z,100479.16
2022-10-10T03:01:52.249Z,100491.34
2022-10-10T03:04:19.342Z,100414.06
2022-10-10T03:06:46.782Z,100469.41
2022-10-10T03:09:13.884Z,100469.41
2022-10-10T03:11:40.943Z,100419.38
2022-10-10T03:14:08.003Z,100489.50
2022-10-10T03:16:35.034Z,100496.50
2022-10-10T03:19:03.533Z,100494.81
2022-10-10T03:21:30.548Z,100493.84
2022-10-10T03:23:57.692Z,100487.59
2022-10-10T03:26:24.753Z,100498.91
2022-10-10T03:28:52.026Z,100496.19
2022-10-10T03:31:19.194Z,100491.50
2022-10-10T03:33:46.375Z,100496.16
2022-10-10T03:36:13.564Z,100514.25
2022-10-10T03:38:41.132Z,100516.88
2022-10-10T03:41:08.370Z,100504.59
2022-10-10T03:43:35.446Z,100528.19
2022-10-10T03:46:02.364Z,100512.41
2022-10-10T03:48:29.526Z,100525.59
2022-10-10T03:50:56.568Z,100511.38
2022-10-10T03:53:23.622Z,100509.69
2022-10-10T03:55:50.722Z,100539.59
2022-10-10T03:58:21.512Z,100492.91
2022-10-10T04:00:56.356Z,100549.34
2022-10-10T04:03:24.077Z,100522.69
2022-10-10T04:05:52.369Z,100533.97
2022-10-10T04:08:20.011Z,100569.78
2022-10-10T04:10:51.835Z,100561.06
2022-10-10T04:13:19.360Z,100477.47
2022-10-10T04:15:46.563Z,100534.63
2022-10-10T04:18:13.905Z,100539.91
2022-10-10T04:20:40.909Z,100567.72
2022-10-10T04:23:07.907Z,100579.91
2022-10-10T04:25:34.970Z,100571.00
2022-10-10T04:28:02.142Z,100585.91
2022-10-10T04:30:35.129Z,100577.06
2022-10-10T04:33:02.204Z,100520.69
2022-10-10T04:35:29.362Z,100596.41
2022-10-10T04:37:56.451Z,100594.41
2022-10-10T04:40:26.628Z,100600.31
2022-10-10T04:42:55.128Z,100597.59
2022-10-10T04:45:26.569Z,100500.91
2022-10-10T04:47:54.838Z,100603.84
2022-10-10T04:50:23.149Z,100536.94
2022-10-10T04:52:50.454Z,100621.47
2022-10-10T04:55:18.227Z,100500.22
2022-10-10T04:57:45.267Z,100613.66
2022-10-10T05:00:14.048Z,100619.84
2022-10-10T05:02:41.257Z,100629.63
2022-10-10T05:05:09.172Z,100624.16
2022-10-10T05:07:36.283Z,100634.00
2022-10-10T05:10:04.104Z,100562.81
2022-10-10T05:12:31.144Z,100642.03
2022-10-10T05:14:58.217Z,100528.75
2022-10-10T05:17:25.449Z,100578.25
2022-10-10T05:19:52.553Z,100642.31
2022-10-10T05:22:19.502Z,100645.88
2022-10-10T05:24:46.434Z,100653.63
2022-10-10T05:27:13.430Z,100655.34
2022-10-10T05:29:40.510Z,100621.94
2022-10-10T05:32:10.283Z,100642.31
2022-10-10T05:34:38.523Z,100655.41
2022-10-10T05:37:05.769Z,100650.97
2022-10-10T05:39:32.853Z,100598.34
2022-10-10T05:41:59.830Z,100593.91
2022-10-10T05:44:27.164Z,100661.56
2022-10-10T05:46:54.322Z,100674.59
2022-10-10T05:49:21.445Z,100641.50
2022-10-10T05:51:48.501Z,100675.66
2022-10-10T05:54:15.476Z,100673.88
2022-10-10T05:56:42.509Z,100665.00
2022-10-10T05:59:09.612Z,100651.69
2022-10-10T06:01:37.222Z,100669.19
2022-10-10T06:04:04.513Z,100560.00
2022-10-10T06:06:31.821Z,100683.09
2022-10-10T06:08:59.700Z,100609.16
2022-10-10T06:11:26.870Z,100656.72
2022-10-10T06:13:57.415Z,100691.91
2022-10-10T06:16:26.646Z,100681.50
2022-10-10T06:18:56.749Z,100665.09
2022-10-10T06:21:25.246Z,100614.50
2022-10-10T06:23:52.646Z,100639.22
2022-10-10T06:26:19.965Z,100672.13
2022-10-10T06:28:47.163Z,100684.00
2022-10-10T06:31:15.794Z,100700.28
2022-10-10T06:33:45.548Z,100711.13
2022-10-10T06:36:14.365Z,100704.91
2022-10-10T06:38:44.775Z,100723.44
2022-10-10T06:41:12.989Z,100717.38
2022-10-10T06:43:41.491Z,100722.44
2022-10-10T06:46:09.801Z,100719.00
2022-10-10T06:48:36.983Z,100727.75
2022-10-10T06:51:07.855Z,100669.94
2022-10-10T06:53:35.877Z,100623.22
2022-10-10T06:56:03.443Z,100687.09
2022-10-10T06:58:30.691Z,100726.69
2022-10-10T07:01:00.407Z,100733.06
2022-10-10T07:03:28.967Z,100723.47
2022-10-10T07:05:58.216Z,100712.84
2022-10-10T07:08:26.206Z,100708.31
2022-10-10T07:10:53.217Z,100709.72
2022-10-10T07:13:20.580Z,100720.59
2022-10-10T07:15:47.725Z,100726.88
2022-10-10T07:18:15.000Z,100637.50
2022-10-10T07:20:42.001Z,100720.56
2022-10-10T07:23:09.258Z,100706.56
2022-10-10T07:25:39.651Z,100726.78
2022-10-10T07:28:07.934Z,100724.13
2022-10-10T07:30:40.722Z,100704.91
2022-10-10T07:33:07.776Z,100702.22
2022-10-10T07:35:34.854Z,100719.66
2022-10-10T07:38:01.883Z,100724.75
2022-10-10T07:40:29.184Z,100723.75
2022-10-10T07:42:56.374Z,100718.28
2022-10-10T07:45:23.496Z,100726.84
2022-10-10T07:47:53.222Z,100730.41
2022-10-10T07:50:20.741Z,100733.47
2022-10-10T07:52:47.645Z,100726.78
2022-10-10T07:55:14.702Z,100741.72
2022-10-10T07:57:41.785Z,100725.13
2022-10-10T08:00:10.431Z,100711.66
2022-10-10T08:02:40.532Z,100729.31
2022-10-10T08:05:07.940Z,100728.41
2022-10-10T08:07:35.309Z,100714.19
2022-10-10T08:10:02.659Z,100714.84
2022-10-10T08:12:31.300Z,100731.91
2022-10-10T08:14:59.686Z,100726.75
2022-10-10T08:17:26.886Z,100711.91
2022-10-10T08:19:54.021Z,100718.22
2022-10-10T08:22:20.999Z,100662.63
2022-10-10T08:24:48.111Z,100710.31
2022-10-10T08:27:17.829Z,100679.13
2022-10-10T08:29:45.101Z,100671.34
2022-10-10T08:32:12.199Z,100661.28
2022-10-10T08:34:39.166Z,100709.84
2022-10-10T08:37:06.103Z,100631.13
2022-10-10T08:39:33.413Z,100714.75
2022-10-10T08:42:02.806Z,100732.19
2022-10-10T08:44:32.914Z,100729.94
2022-10-10T08:47:11.202Z,100732.63
2022-10-10T08:49:50.161Z,100737.03
2022-10-10T08:52:55.359Z,100737.81
2022-10-10T08:55:34.584Z,100747.63
2022-10-10T08:58:12.412Z,100743.75
2022-10-10T09:00:45.951Z,100746.34
2022-10-10T09:03:31.061Z,100698.16
2022-10-10T09:06:17.690Z,100757.59
2022-10-10T09:08:59.779Z,100748.78
2022-10-10T09:11:55.662Z,100758.09
2022-10-10T09:14:37.706Z,100734.75
2022-10-10T09:20:09.791Z,100755.25
2022-10-10T09:22:48.717Z,100670.25
2022-10-10T09:25:26.784Z,100753.84
2022-10-10T09:28:20.584Z,100768.41
2022-10-10T09:30:52.854Z,100769.22
2022-10-10T09:33:28.426Z,100762.06
2022-10-10T09:35:57.961Z,100763.88
2022-10-10T09:38:57.545Z,100775.53
2022-10-10T09:41:39.574Z,100592.81
2022-10-10T09:44:11.687Z,100759.19
2022-10-10T09:46:38.845Z,100738.13
2022-10-10T09:49:06.212Z,100748.63
2022-10-10T09:51:34.491Z,100665.50
2022-10-10T09:54:02.399Z,100771.38
2022-10-10T09:56:54.850Z,100673.41
2022-10-10T09:59:42.006Z,100768.81
2022-10-10T10:02:14.054Z,100767.13
2022-10-10T10:04:41.114Z,100757.44
2022-10-10T10:07:29.359Z,100750.44
2022-10-10T10:10:11.055Z,100774.97
2022-10-10T10:12:41.516Z,100772.41
2022-10-10T10:15:21.986Z,100775.91
2022-10-10T10:18:17.084Z,100776.78
2022-10-10T10:20:46.422Z,100751.28
2022-10-10T10:23:33.231Z,100784.59
2022-10-10T10:26:07.087Z,100770.53
2022-10-10T10:28:41.518Z,100766.13
2022-10-10T10:31:31.187Z,100696.88
2022-10-10T10:34:29.022Z,100776.53
2022-10-10T10:36:56.035Z,100778.16
2022-10-10T10:40:09.473Z,100767.66
2022-10-10T10:43:11.447Z,100608.06
2022-10-10T10:45:49.340Z,100776.28
2022-10-10T10:48:39.700Z,100758.69
2022-10-10T10:51:18.895Z,100742.84
2022-10-10T10:53:54.811Z,100783.00
2022-10-10T10:56:38.363Z,100775.09
2022-10-10T11:02:07.820Z,100790.63
2022-10-10T11:05:24.861Z,100786.19
2022-10-10T11:07:53.336Z,100779.03
2022-10-10T11:10:43.425Z,100781.72
2022-10-10T11:13:29.177Z,100785.31
2022-10-10T11:16:47.888Z,100774.28
2022-10-10T11:19:15.198Z,100771.84
2022-10-10T11:21:46.094Z,100777.81
2022-10-10T11:24:30.435Z,100767.22
2022-10-10T11:27:02.716Z,100767.13
2022-10-10T11:29:49.229Z,100733.94
2022-10-10T11:32:22.333Z,100761.25
2022-10-10T11:35:16.398Z,100771.00
2022-10-10T11:37:52.289Z,100764.72
2022-10-10T11:40:36.777Z,100605.91
2022-10-10T11:43:08.465Z,100764.53
2022-10-10T11:45:45.488Z,100770.53
2022-10-10T11:48:18.367Z,100771.31
2022-10-10T11:50:49.900Z,100759.72
2022-10-10T11:53:32.365Z,100699.22
2022-10-10T11:56:10.466Z,100775.44
2022-10-10T11:58:44.574Z,100756.97
2022-10-10T12:01:21.264Z,100757.75
2022-10-10T12:03:51.409Z,100770.72
2022-10-10T12:06:33.538Z,100657.53
2022-10-10T12:09:03.967Z,100402.19
2022-10-10T12:11:45.465Z,100698.66
2022-10-10T12:14:18.261Z,100753.88
2022-10-10T12:16:46.193Z,100773.94
2022-10-10T12:19:19.492Z,100777.41
2022-10-10T12:22:02.551Z,100781.78
2022-10-10T12:24:38.665Z,100697.38
2022-10-10T12:27:07.903Z,100777.25
2022-10-10T12:29:56.832Z,100784.19
2022-10-10T12:32:40.259Z,100777.03
2022-10-10T12:35:27.497Z,100780.53
2022-10-10T12:38:09.778Z,100786.44
2022-10-10T12:41:10.385Z,100767.81
2022-10-10T12:43:45.270Z,100798.31
2022-10-10T12:46:26.468Z,100804.28
2022-10-10T12:48:58.647Z,100743.69
2022-10-10T12:51:26.815Z,100783.16
2022-10-10T12:53:57.496Z,100763.69
2022-10-10T12:56:38.758Z,100767.19
2022-10-10T12:59:16.671Z,100793.31
2022-10-10T13:01:47.087Z,100801.16
2022-10-10T13:04:17.719Z,100690.34
2022-10-10T13:06:47.159Z,100787.06
2022-10-10T13:09:21.539Z,100781.72
2022-10-10T13:12:01.859Z,100797.50
2022-10-10T13:14:44.324Z,100785.22
2022-10-10T13:17:23.932Z,100795.63
2022-10-10T13:19:52.332Z,100802.38
2022-10-10T13:22:20.763Z,100789.16
2022-10-10T13:24:48.916Z,100796.16
2022-10-10T13:27:28.490Z,100800.50
2022-10-10T13:29:56.111Z,100799.53
2022-10-10T13:32:29.101Z,100708.84
2022-10-10T13:34:59.862Z,100720.09
2022-10-10T13:37:27.975Z,100772.00
2022-10-10T13:39:55.745Z,100805.31
2022-10-10T13:42:38.978Z,100784.97
2022-10-10T13:45:30.200Z,100803.38
2022-10-10T13:48:00.699Z,100809.28
2022-10-10T13:50:33.258Z,100812.59
2022-10-10T13:53:32.271Z,100809.19
2022-10-10T13:56:09.185Z,100804.78
2022-10-10T13:59:05.213Z,100792.34
2022-10-10T14:01:49.512Z,100720.03
2022-10-10T14:04:19.236Z,100826.06
2022-10-10T14:06:55.388Z,100724.81
2022-10-10T14:09:25.714Z,100783.63
2022-10-10T14:11:54.960Z,100794.91
2022-10-10T14:14:32.455Z,100822.94
2022-10-10T14:17:04.739Z,100824.53
2022-10-10T14:19:33.257Z,100655.34
2022-10-10T14:22:00.347Z,100840.75
2022-10-10T14:24:27.448Z,100808.44
2022-10-10T14:26:54.538Z,100813.69
2022-10-10T14:29:22.013Z,100794.16
2022-10-10T14:31:49.152Z,100707.78
2022-10-10T14:34:16.506Z,100813.25
2022-10-10T14:36:50.332Z,100810.53
2022-10-10T14:39:18.841Z,100846.34
2022-10-10T14:41:46.756Z,100766.13
2022-10-10T14:44:13.744Z,100783.56
2022-10-10T14:46:41.777Z,100642.53
2022-10-10T14:49:19.618Z,100841.44
2022-10-10T14:51:48.059Z,100839.50
2022-10-10T14:54:15.153Z,100781.97
2022-10-10T14:57:06.789Z,100841.13
2022-10-10T14:59:47.420Z,100757.31
2022-10-10T15:02:24.090Z,100846.19
2022-10-10T15:04:51.347Z,100768.50
2022-10-10T15:07:19.298Z,100743.56
2022-10-10T15:12:38.449Z,100856.63
2022-10-10T15:15:06.768Z,100854.72
2022-10-10T15:17:34.611Z,100768.28
2022-10-10T15:20:03.500Z,100859.69
2022-10-10T15:22:31.072Z,100786.53
2022-10-10T15:24:58.111Z,100863.84
2022-10-10T15:27:25.348Z,100853.13
2022-10-10T15:29:52.288Z,100784.59
2022-10-10T15:32:19.272Z,100838.34
2022-10-10T15:34:50.177Z,100856.75
2022-10-10T15:37:17.832Z,100855.88
2022-10-10T15:39:45.906Z,100867.81
2022-10-10T15:42:18.592Z,100844.00
2022-10-10T15:44:49.623Z,100848.34
2022-10-10T15:47:17.873Z,100869.44
2022-10-10T15:49:45.361Z,100867.56
2022-10-10T15:52:12.675Z,100863.16
2022-10-10T15:54:39.828Z,100855.34
2022-10-10T15:57:07.017Z,100863.13
2022-10-10T15:59:36.832Z,100855.13
2022-10-10T16:02:06.300Z,100738.78
2022-10-10T16:04:33.579Z,100836.44
2022-10-10T16:09:47.653Z,100865.03
2022-10-10T16:12:14.727Z,100850.44
2022-10-10T16:14:41.798Z,100860.25
2022-10-10T16:17:08.820Z,100766.72
2022-10-10T16:19:35.819Z,100831.06
2022-10-10T16:22:02.963Z,100873.31
2022-10-10T16:24:30.710Z,100868.75
2022-10-10T16:26:59.585Z,100811.19
2022-10-10T16:29:26.633Z,100881.72
2022-10-10T16:31:53.653Z,100870.84
2022-10-10T16:34:21.842Z,100877.78
2022-10-10T16:36:48.884Z,100890.81
2022-10-10T16:39:15.958Z,100860.00
2022-10-10T16:41:48.192Z,100875.72
2022-10-10T16:44:16.243Z,100886.97
2022-10-10T16:46:43.587Z,100872.00
2022-10-10T16:49:12.908Z,100872.63
2022-10-10T16:51:40.181Z,100876.91
2022-10-10T16:54:07.581Z,100882.16
2022-10-10T16:56:35.485Z,100831.72
2022-10-10T16:59:03.000Z,100807.47
2022-10-10T17:01:30.543Z,100888.81
2022-10-10T17:04:02.046Z,100880.53
2022-10-10T17:06:35.341Z,100892.91
2022-10-10T17:09:02.985Z,100717.28
2022-10-10T17:11:30.351Z,100904.06
2022-10-10T17:13:58.079Z,100862.75
2022-10-10T17:17:28.744Z,100900.28
2022-10-10T17:19:14.679Z,100801.63
2022-10-10T17:21:41.663Z,100886.41
2022-10-10T17:24:08.747Z,100876.75
2022-10-10T17:26:35.781Z,100851.94
2022-10-10T17:29:02.907Z,100823.34
2022-10-10T17:31:29.942Z,100872.66
2022-10-10T17:33:57.785Z,100868.91
2022-10-10T17:36:26.832Z,100880.91
2022-10-10T17:39:00.469Z,100898.13
2022-10-10T17:41:28.721Z,100891.16
2022-10-10T17:43:56.187Z,100908.69
2022-10-10T17:46:35.278Z,100904.38
2022-10-10T17:49:05.901Z,100899.03
2022-10-10T17:51:34.637Z,100898.09
2022-10-10T17:54:02.855Z,100905.75
2022-10-10T17:56:30.499Z,100884.38
2022-10-10T17:58:59.669Z,100906.25
2022-10-10T18:01:26.937Z,100904.22
2022-10-10T18:03:53.999Z,100872.97
2022-10-10T18:06:22.764Z,100894.81
2022-10-10T18:08:51.771Z,100810.78
2022-10-10T18:11:21.328Z,100918.25
2022-10-10T18:13:48.448Z,100901.63
2022-10-10T18:16:19.086Z,100821.19
2022-10-10T18:18:51.056Z,100895.34
2022-10-10T18:21:23.158Z,100902.22
2022-10-10T18:23:50.560Z,100831.34
2022-10-10T18:26:20.727Z,100800.34
2022-10-10T18:28:48.635Z,100802.94
2022-10-10T18:31:18.096Z,100906.03
2022-10-10T18:33:45.830Z,100913.03
2022-10-10T18:36:19.669Z,100909.47
2022-10-10T18:38:48.667Z,100799.66
2022-10-10T18:41:20.470Z,100919.44
2022-10-10T18:43:49.175Z,100908.19
2022-10-10T18:46:20.616Z,100804.78
2022-10-10T18:48:53.552Z,100905.22
2022-10-10T18:51:27.256Z,100885.16
2022-10-10T18:54:03.919Z,100872.66
2022-10-10T18:56:32.779Z,100908.84
2022-10-10T18:59:02.647Z,100906.75
2022-10-10T19:01:33.345Z,100910.94
2022-10-10T19:04:00.467Z,100810.16
2022-10-10T19:06:27.401Z,100914.94
2022-10-10T19:08:56.552Z,100899.00
2022-10-10T19:11:31.756Z,100821.63
2022-10-10T19:14:00.936Z,100879.16
2022-10-10T19:16:28.299Z,100888.06
2022-10-10T19:18:58.644Z,100863.25
2022-10-10T19:21:29.182Z,100850.91
2022-10-10T19:23:56.363Z,100903.91
2022-10-10T19:26:23.472Z,100888.00
2022-10-10T19:28:50.456Z,100869.38
2022-10-10T19:31:19.294Z,100901.91
2022-10-10T19:33:52.144Z,100900.09
2022-10-10T19:36:19.262Z,100868.44
2022-10-10T19:38:46.650Z,100900.09
2022-10-10T19:41:14.442Z,100902.63
2022-10-10T19:43:42.915Z,100817.88
2022-10-10T19:46:13.005Z,100895.97
2022-10-10T19:48:40.544Z,100889.59
2022-10-10T19:51:10.125Z,100879.59
2022-10-10T19:53:38.121Z,100876.81
2022-10-10T19:56:08.861Z,100895.06
2022-10-10T19:58:37.160Z,100819.72
2022-10-10T20:01:13.926Z,100900.19
2022-10-10T20:03:41.402Z,100880.66
2022-10-10T20:06:08.535Z,100883.41
2022-10-10T20:08:35.628Z,100870.59
2022-10-10T20:11:02.858Z,100830.56
2022-10-10T20:13:32.175Z,100857.19
2022-10-10T20:16:01.656Z,100873.09
2022-10-10T20:18:29.760Z,100871.59
2022-10-10T20:20:56.713Z,100859.97
2022-10-10T20:23:25.155Z,100853.59
2022-10-10T20:25:52.823Z,100844.44
2022-10-10T20:28:20.958Z,100868.19
2022-10-10T20:30:50.841Z,100868.03
2022-10-10T20:33:19.620Z,100854.63
2022-10-10T20:35:49.356Z,100869.47
2022-10-10T20:38:19.322Z,100870.28
2022-10-10T20:40:46.443Z,100852.38
2022-10-10T20:43:14.879Z,100677.25
2022-10-10T20:45:42.035Z,100874.44
2022-10-10T20:48:10.067Z,100844.03
2022-10-10T20:50:38.183Z,100867.25
2022-10-10T20:53:06.698Z,100835.81
2022-10-10T20:55:33.832Z,100875.16
2022-10-10T20:58:01.108Z,100858.31
2022-10-10T21:00:28.081Z,100861.28
2022-10-10T21:02:56.162Z,100836.75
2022-10-10T21:05:23.349Z,100791.59
2022-10-10T21:07:50.388Z,100869.03
2022-10-10T21:10:17.374Z,100834.25
2022-10-10T21:12:44.294Z,100859.75
2022-10-10T21:15:11.562Z,100858.59
2022-10-10T21:17:38.988Z,100823.56
2022-10-10T21:20:07.372Z,100858.88
2022-10-10T21:22:34.339Z,100858.88
2022-10-10T21:25:01.389Z,100857.09
2022-10-10T21:27:30.318Z,100855.44
2022-10-10T21:29:57.204Z,100825.34
2022-10-10T21:32:26.513Z,100839.56
2022-10-10T21:34:56.415Z,100855.88
2022-10-10T21:37:23.983Z,100838.88
2022-10-10T21:39:50.949Z,100858.94
2022-10-10T21:42:18.108Z,100853.31
2022-10-10T21:44:45.121Z,100838.72
2022-10-10T21:47:12.104Z,100828.72
2022-10-10T21:49:39.153Z,100849.78
2022-10-10T21:52:06.075Z,100857.22
2022-10-10T21:54:32.958Z,100859.59
2022-10-10T21:56:59.911Z,100856.94
2022-10-10T21:59:30.377Z,100851.78
2022-10-10T22:01:57.610Z,100826.88
2022-10-10T22:04:28.828Z,100821.59
2022-10-10T22:06:56.433Z,100833.66
2022-10-10T22:09:23.476Z,100840.59
2022-10-10T22:11:50.741Z,100854.44
2022-10-10T22:14:17.953Z,100853.50
2022-10-10T22:16:44.886Z,100768.28
2022-10-10T22:19:11.796Z,100824.13
2022-10-10T22:21:38.816Z,100849.03
2022-10-10T22:24:07.448Z,100847.97
2022-10-10T22:26:35.457Z,100801.53
2022-10-10T22:29:03.231Z,100847.50
2022-10-10T22:31:30.317Z,100832.59
2022-10-10T22:33:57.655Z,100855.66
2022-10-10T22:36:24.898Z,100646.50
2022-10-10T22:38:52.284Z,100859.13
2022-10-10T22:41:19.247Z,100857.44
2022-10-10T22:43:46.254Z,100833.78
2022-10-10T22:46:13.730Z,100739.13
2022-10-10T22:48:40.752Z,100732.72
2022-10-10T22:51:16.310Z,100837.59
2022-10-10T22:53:44.763Z,100809.31
2022-10-10T22:56:15.618Z,100822.59
2022-10-10T22:58:43.443Z,100847.50
2022-10-10T23:01:15.281Z,100848.38
2022-10-10T23:03:42.830Z,100836.94
2022-10-10T23:06:10.135Z,100762.41
2022-10-10T23:08:37.373Z,100850.56
2022-10-10T23:11:04.620Z,100735.69
2022-10-10T23:13:32.196Z,100843.44
2022-10-10T23:15:59.447Z,100809.47
2022-10-10T23:18:28.513Z,100845.66
2022-10-10T23:20:55.623Z,100720.97
2022-10-10T23:23:22.671Z,100816.63
2022-10-10T23:25:49.976Z,100847.13
2022-10-10T23:28:17.824Z,100771.53
2022-10-10T23:30:47.202Z,100804.22
2022-10-10T23:33:15.681Z,100828.91
2022-10-10T23:35:42.655Z,100820.22
2022-10-10T23:38:09.620Z,100842.41
2022-10-10T23:40:36.830Z,100810.88
2022-10-10T23:43:04.094Z,100836.44
2022-10-10T23:45:31.381Z,100739.44
2022-10-10T23:47:58.385Z,100742.66
2022-10-10T23:50:25.452Z,100816.53
2022-10-10T23:52:52.556Z,100828.69
2022-10-10T23:56:13.247Z,100776.25
2022-10-10T23:58:53.352Z,100827.31
